DRK401 VNKT-VQPR
Flight info
| Callsign | DRK401 |
|---|---|
| Flight time | 0h 43m |
| Altitude | 31000 |
| Route | IGRIS1D KIMTI G348 SUBSU DCT TAKTI DCT PRO |
| Aircraft | A319/M-SDE3FGHIRWY/LB1 |
Departure
| Time | 2026-05-04 10:32 |
|---|---|
| Airport | Tribhuvan International Airport (VNKT) |
Arrival
| Time | 2026-05-04 11:16 |
|---|---|
| Airport | Paro International Airport (VQPR) |
| Time | Latitude | Longitude | Altitude | Speed | Heading |
|---|---|---|---|---|---|
| 2026-05-04 10:21 | 27.69994 | 85.35830 | 4374 ft | 0 kts | 292° |
| 2026-05-04 10:22 | 27.69994 | 85.35831 | 4374 ft | 2 kts | 292° |
| 2026-05-04 10:22 | 27.69985 | 85.35857 | 4370 ft | 4 kts | 288° |
| 2026-05-04 10:22 | 27.69978 | 85.35887 | 4362 ft | 4 kts | 279° |
| 2026-05-04 10:23 | 27.69976 | 85.35916 | 4370 ft | 4 kts | 261° |
| 2026-05-04 10:23 | 27.69985 | 85.35940 | 4354 ft | 3 kts | 207° |
| 2026-05-04 10:25 | 27.69988 | 85.35942 | 4355 ft | 0 kts | 202° |
| 2026-05-04 10:25 | 27.69987 | 85.35942 | 4355 ft | 1 kts | 202° |
| 2026-05-04 10:25 | 27.69984 | 85.35940 | 4354 ft | 1 kts | 202° |
| 2026-05-04 10:26 | 27.69965 | 85.35932 | 4361 ft | 8 kts | 199° |
| 2026-05-04 10:26 | 27.69950 | 85.35926 | 4369 ft | 0 kts | 199° |
| 2026-05-04 10:26 | 27.69811 | 85.35867 | 4356 ft | 36 kts | 202° |
| 2026-05-04 10:27 | 27.69580 | 85.35761 | 4365 ft | 36 kts | 202° |
| 2026-05-04 10:27 | 27.69346 | 85.35652 | 4348 ft | 37 kts | 202° |
| 2026-05-04 10:27 | 27.69146 | 85.35563 | 4346 ft | 19 kts | 201° |
| 2026-05-04 10:27 | 27.69045 | 85.35623 | 4349 ft | 17 kts | 147° |
| 2026-05-04 10:28 | 27.68973 | 85.35610 | 4347 ft | 10 kts | 213° |
| 2026-05-04 10:28 | 27.68907 | 85.35572 | 4341 ft | 11 kts | 201° |
| 2026-05-04 10:28 | 27.68828 | 85.35536 | 4343 ft | 13 kts | 201° |
| 2026-05-04 10:28 | 27.68737 | 85.35495 | 4340 ft | 15 kts | 203° |
| 2026-05-04 10:29 | 27.68635 | 85.35447 | 4339 ft | 17 kts | 201° |
| 2026-05-04 10:29 | 27.68525 | 85.35398 | 4337 ft | 18 kts | 201° |
| 2026-05-04 10:29 | 27.68433 | 85.35317 | 4335 ft | 15 kts | 198° |
| 2026-05-04 10:29 | 27.68404 | 85.35359 | 4335 ft | 4 kts | 72° |
| 2026-05-04 10:30 | 27.68418 | 85.35363 | 4332 ft | 2 kts | 359° |
| 2026-05-04 10:30 | 27.68431 | 85.35363 | 4335 ft | 3 kts | 359° |
| 2026-05-04 10:30 | 27.68491 | 85.35384 | 4337 ft | 16 kts | 22° |
| 2026-05-04 10:30 | 27.68804 | 85.35524 | 4342 ft | 81 kts | 21° |
| 2026-05-04 10:31 | 27.69504 | 85.35838 | 4363 ft | 134 kts | 21° |
| 2026-05-04 10:31 | 27.70490 | 85.36289 | 4518 ft | 163 kts | 18° |
| 2026-05-04 10:32 | 27.69838 | 85.43406 | 6980 ft | 253 kts | 129° |
| 2026-05-04 10:33 | 27.68762 | 85.45095 | 7377 ft | 276 kts | 125° |
| 2026-05-04 10:33 | 27.67670 | 85.46926 | 8053 ft | 285 kts | 124° |
| 2026-05-04 10:33 | 27.66567 | 85.48810 | 8877 ft | 290 kts | 124° |
| 2026-05-04 10:33 | 27.65460 | 85.50702 | 9682 ft | 295 kts | 123° |
| 2026-05-04 10:34 | 27.64308 | 85.52661 | 10270 ft | 309 kts | 124° |
| 2026-05-04 10:34 | 27.63090 | 85.54776 | 10533 ft | 333 kts | 119° |
| 2026-05-04 10:34 | 27.62179 | 85.57269 | 10758 ft | 356 kts | 107° |
| 2026-05-04 10:34 | 27.61453 | 85.60021 | 11081 ft | 373 kts | 106° |
| 2026-05-04 10:35 | 27.60712 | 85.62847 | 11674 ft | 380 kts | 107° |
| 2026-05-04 10:35 | 27.59953 | 85.65722 | 12324 ft | 384 kts | 107° |
| 2026-05-04 10:35 | 27.59163 | 85.68613 | 12989 ft | 388 kts | 109° |
| 2026-05-04 10:35 | 27.58087 | 85.71426 | 13595 ft | 394 kts | 117° |
| 2026-05-04 10:36 | 27.56862 | 85.74197 | 14204 ft | 398 kts | 117° |
| 2026-05-04 10:36 | 27.55626 | 85.76999 | 14792 ft | 401 kts | 117° |
| 2026-05-04 10:36 | 27.54379 | 85.79829 | 15352 ft | 405 kts | 117° |
| 2026-05-04 10:36 | 27.53122 | 85.82690 | 15909 ft | 409 kts | 117° |
| 2026-05-04 10:37 | 27.52005 | 85.85654 | 16477 ft | 414 kts | 109° |
| 2026-05-04 10:37 | 27.51272 | 85.88806 | 17047 ft | 419 kts | 101° |
| 2026-05-04 10:37 | 27.50970 | 85.92096 | 17583 ft | 425 kts | 92° |
| 2026-05-04 10:37 | 27.50871 | 85.95438 | 18119 ft | 429 kts | 92° |
| 2026-05-04 10:39 | 27.50080 | 86.16106 | 20796 ft | 452 kts | 94° |
| 2026-05-04 10:39 | 27.49938 | 86.19656 | 21244 ft | 455 kts | 94° |
| 2026-05-04 10:39 | 27.49796 | 86.23228 | 21703 ft | 458 kts | 94° |
| 2026-05-04 10:40 | 27.49583 | 86.26815 | 22113 ft | 461 kts | 99° |
| 2026-05-04 10:40 | 27.48985 | 86.30367 | 22483 ft | 463 kts | 104° |
| 2026-05-04 10:40 | 27.48302 | 86.33929 | 22921 ft | 467 kts | 104° |
| 2026-05-04 10:40 | 27.47614 | 86.37511 | 23319 ft | 470 kts | 104° |
| 2026-05-04 10:41 | 27.46921 | 86.41116 | 23668 ft | 473 kts | 104° |
| 2026-05-04 10:41 | 27.46224 | 86.44743 | 23977 ft | 476 kts | 104° |
| 2026-05-04 10:41 | 27.45522 | 86.48393 | 24276 ft | 478 kts | 104° |
| 2026-05-04 10:41 | 27.44817 | 86.52060 | 24609 ft | 480 kts | 104° |
| 2026-05-04 10:42 | 27.44107 | 86.55741 | 24934 ft | 482 kts | 104° |
| 2026-05-04 10:42 | 27.43394 | 86.59443 | 25211 ft | 485 kts | 105° |
| 2026-05-04 10:42 | 27.42675 | 86.63170 | 25367 ft | 490 kts | 104° |
| 2026-05-04 10:42 | 27.41957 | 86.66881 | 25608 ft | 492 kts | 104° |
| 2026-05-04 10:43 | 27.41222 | 86.70650 | 25879 ft | 494 kts | 104° |
| 2026-05-04 10:44 | 27.35966 | 86.97569 | 27766 ft | 511 kts | 105° |
| 2026-05-04 10:45 | 27.35199 | 87.01483 | 27995 ft | 513 kts | 105° |
| 2026-05-04 10:45 | 27.34427 | 87.05415 | 28211 ft | 516 kts | 105° |
| 2026-05-04 10:45 | 27.33648 | 87.09372 | 28444 ft | 518 kts | 105° |
| 2026-05-04 10:45 | 27.32862 | 87.13341 | 28698 ft | 520 kts | 105° |
| 2026-05-04 10:46 | 27.31982 | 87.17271 | 29043 ft | 516 kts | 111° |
| 2026-05-04 10:46 | 27.30668 | 87.20996 | 29418 ft | 511 kts | 120° |
| 2026-05-04 10:46 | 27.28935 | 87.24450 | 29809 ft | 505 kts | 126° |
| 2026-05-04 10:46 | 27.27102 | 87.27756 | 30182 ft | 504 kts | 126° |
| 2026-05-04 10:47 | 27.25248 | 87.31110 | 30449 ft | 505 kts | 126° |
| 2026-05-04 10:47 | 27.23396 | 87.34469 | 30761 ft | 506 kts | 127° |
| 2026-05-04 10:47 | 27.21542 | 87.37837 | 30996 ft | 506 kts | 127° |
| 2026-05-04 10:49 | 27.06595 | 87.64853 | 31013 ft | 511 kts | 127° |
| 2026-05-04 10:50 | 27.02834 | 87.71621 | 31025 ft | 511 kts | 127° |
| 2026-05-04 10:52 | 26.87681 | 87.98785 | 31004 ft | 514 kts | 127° |
| 2026-05-04 10:52 | 26.85787 | 88.02169 | 30833 ft | 511 kts | 127° |
| 2026-05-04 10:52 | 26.83927 | 88.05492 | 29932 ft | 512 kts | 128° |
| 2026-05-04 10:54 | 26.71762 | 88.29844 | 22879 ft | 507 kts | 100° |
| 2026-05-04 10:54 | 26.71523 | 88.33687 | 22730 ft | 483 kts | 88° |
| 2026-05-04 10:56 | 26.79400 | 88.54061 | 21900 ft | 354 kts | 59° |
| 2026-05-04 10:56 | 26.80565 | 88.56426 | 21777 ft | 341 kts | 59° |
| 2026-05-04 10:56 | 26.81690 | 88.58711 | 21352 ft | 343 kts | 59° |
| 2026-05-04 10:57 | 26.82854 | 88.61074 | 20807 ft | 349 kts | 59° |
| 2026-05-04 10:57 | 26.84023 | 88.63453 | 20426 ft | 348 kts | 59° |
| 2026-05-04 10:57 | 26.85189 | 88.65828 | 20093 ft | 347 kts | 59° |
| 2026-05-04 10:57 | 26.86348 | 88.68192 | 19772 ft | 345 kts | 59° |
| 2026-05-04 10:58 | 26.87498 | 88.70540 | 19527 ft | 342 kts | 59° |
| 2026-05-04 10:58 | 26.88635 | 88.72862 | 19254 ft | 339 kts | 59° |
| 2026-05-04 10:58 | 26.89766 | 88.75170 | 18959 ft | 337 kts | 59° |
| 2026-05-04 10:58 | 26.90890 | 88.77463 | 18674 ft | 335 kts | 59° |
| 2026-05-04 10:59 | 26.92006 | 88.79745 | 18404 ft | 333 kts | 59° |
| 2026-05-04 10:59 | 26.93113 | 88.82015 | 18097 ft | 331 kts | 59° |
| 2026-05-04 10:59 | 26.94212 | 88.84271 | 17783 ft | 328 kts | 59° |
| 2026-05-04 10:59 | 26.95304 | 88.86506 | 17495 ft | 326 kts | 59° |
| 2026-05-04 11:00 | 26.96391 | 88.88728 | 17229 ft | 325 kts | 59° |
| 2026-05-04 11:01 | 27.02856 | 89.04272 | 15468 ft | 308 kts | 73° |
| 2026-05-04 11:02 | 27.03418 | 89.06583 | 15179 ft | 306 kts | 77° |
| 2026-05-04 11:02 | 27.03606 | 89.08954 | 14926 ft | 305 kts | 88° |
| 2026-05-04 11:05 | 27.04578 | 89.38693 | 13938 ft | 262 kts | 88° |
| 2026-05-04 11:06 | 27.04640 | 89.40736 | 13932 ft | 262 kts | 88° |
| 2026-05-04 11:06 | 27.04704 | 89.42781 | 13934 ft | 263 kts | 88° |
| 2026-05-04 11:06 | 27.04767 | 89.44826 | 13822 ft | 261 kts | 88° |
| 2026-05-04 11:06 | 27.04861 | 89.46850 | 13601 ft | 258 kts | 81° |
| 2026-05-04 11:08 | 27.15159 | 89.50588 | 11410 ft | 246 kts | 357° |
| 2026-05-04 11:10 | 27.25926 | 89.52783 | 9583 ft | 214 kts | 21° |
| 2026-05-04 11:12 | 27.32520 | 89.50119 | 8461 ft | 191 kts | 262° |
| 2026-05-04 11:12 | 27.32595 | 89.48664 | 8225 ft | 183 kts | 288° |
| 2026-05-04 11:12 | 27.33367 | 89.47592 | 8213 ft | 176 kts | 320° |
| 2026-05-04 11:12 | 27.34445 | 89.46955 | 8251 ft | 173 kts | 337° |
| 2026-05-04 11:13 | 27.35572 | 89.46503 | 8250 ft | 170 kts | 340° |
| 2026-05-04 11:13 | 27.36695 | 89.46056 | 8269 ft | 168 kts | 339° |
| 2026-05-04 11:13 | 27.37705 | 89.45457 | 8056 ft | 163 kts | 313° |
| 2026-05-04 11:13 | 27.38197 | 89.44362 | 7879 ft | 157 kts | 288° |
| 2026-05-04 11:14 | 27.38900 | 89.43402 | 7535 ft | 171 kts | 329° |
| 2026-05-04 11:14 | 27.39925 | 89.42726 | 7341 ft | 161 kts | 329° |
| 2026-05-04 11:14 | 27.40630 | 89.42272 | 7338 ft | 53 kts | 330° |
| 2026-05-04 11:16 | 27.40626 | 89.42102 | 7333 ft | 0 kts | 240° |